createdAt,value
2022-10-07T00:01:53.428Z,6.45
2022-10-07T00:04:20.612Z,9.75
2022-10-07T00:06:47.657Z,9.20
2022-10-07T00:09:15.106Z,6.97
2022-10-07T00:11:42.430Z,5.38
2022-10-07T00:14:09.476Z,8.13
2022-10-07T00:16:38.145Z,4.60
2022-10-07T00:19:07.578Z,6.95
2022-10-07T00:21:35.412Z,7.38
2022-10-07T00:24:02.697Z,10.10
2022-10-07T00:26:31.311Z,10.13
2022-10-07T00:28:58.941Z,5.68
2022-10-07T00:31:27.172Z,6.13
2022-10-07T00:33:55.090Z,9.88
2022-10-07T00:36:32.681Z,6.25
2022-10-07T00:39:00.848Z,6.53
2022-10-07T00:41:29.470Z,11.65
2022-10-07T00:43:57.337Z,4.78
2022-10-07T00:46:33.951Z,5.55
2022-10-07T00:49:06.379Z,7.53
2022-10-07T00:51:34.659Z,7.75
2022-10-07T00:54:03.012Z,6.47
2022-10-07T00:56:30.447Z,5.10
2022-10-07T00:58:59.305Z,6.65
2022-10-07T01:01:27.051Z,6.40
2022-10-07T01:03:54.883Z,5.20
2022-10-07T01:06:22.569Z,6.05
2022-10-07T01:08:52.754Z,5.47
2022-10-07T01:11:22.614Z,9.65
2022-10-07T01:13:49.596Z,6.20
2022-10-07T01:16:25.752Z,8.35
2022-10-07T01:19:04.899Z,7.72
2022-10-07T01:21:31.920Z,7.75
2022-10-07T01:24:02.687Z,7.57
2022-10-07T01:26:29.676Z,10.30
2022-10-07T01:29:00.900Z,8.68
2022-10-07T01:31:32.719Z,7.20
2022-10-07T01:34:00.700Z,8.20
2022-10-07T01:36:28.016Z,8.60
2022-10-07T01:38:59.313Z,12.50
2022-10-07T01:41:26.349Z,7.43
2022-10-07T01:43:54.813Z,9.23
2022-10-07T01:46:24.056Z,9.23
2022-10-07T01:48:51.872Z,9.18
2022-10-07T01:51:21.450Z,8.05
2022-10-07T01:54:01.644Z,7.07
2022-10-07T01:56:40.852Z,8.68
2022-10-07T01:59:22.460Z,8.07
2022-10-07T02:01:58.542Z,9.07
2022-10-07T02:04:25.597Z,9.60
2022-10-07T02:07:13.516Z,8.02
2022-10-07T02:09:50.082Z,9.02
2022-10-07T02:12:23.217Z,7.13
2022-10-07T02:14:53.866Z,9.00
2022-10-07T02:17:21.983Z,10.48
2022-10-07T02:19:50.052Z,9.30
2022-10-07T02:22:18.320Z,8.68
2022-10-07T02:24:47.653Z,7.88
2022-10-07T02:27:16.862Z,10.18
2022-10-07T02:29:44.902Z,10.57
2022-10-07T02:32:14.306Z,7.60
2022-10-07T02:34:43.484Z,10.90
2022-10-07T02:37:18.535Z,10.80
2022-10-07T02:39:46.744Z,7.80
2022-10-07T02:42:36.025Z,8.35
2022-10-07T02:45:15.760Z,7.28
2022-10-07T02:48:01.365Z,8.73
2022-10-07T02:50:34.629Z,8.15
2022-10-07T02:53:02.942Z,9.80
2022-10-07T02:55:30.800Z,10.88
2022-10-07T02:58:04.052Z,11.68
2022-10-07T03:00:33.375Z,12.60
2022-10-07T03:03:02.492Z,9.27
2022-10-07T03:05:30.333Z,6.70
2022-10-07T03:07:59.498Z,10.65
2022-10-07T03:10:29.723Z,8.05
2022-10-07T03:12:57.020Z,7.28
2022-10-07T03:15:24.459Z,5.50
2022-10-07T03:17:51.511Z,4.57
2022-10-07T03:20:18.551Z,12.85
2022-10-07T03:22:45.620Z,8.05
2022-10-07T03:25:13.192Z,7.57
2022-10-07T03:27:42.464Z,5.90
2022-10-07T03:30:10.979Z,8.20
2022-10-07T03:32:39.310Z,7.88
2022-10-07T03:35:06.553Z,8.93
2022-10-07T03:37:33.558Z,5.57
2022-10-07T03:40:00.550Z,7.13
2022-10-07T03:42:27.601Z,8.10
2022-10-07T03:44:54.579Z,7.82
2022-10-07T03:47:21.666Z,7.78
2022-10-07T03:49:48.847Z,10.43
2022-10-07T03:52:15.907Z,9.75
2022-10-07T03:54:43.487Z,9.38
2022-10-07T03:57:29.099Z,7.70
2022-10-07T03:59:56.105Z,8.95
2022-10-07T04:02:23.334Z,10.40
2022-10-07T04:04:52.644Z,7.80
2022-10-07T04:07:22.872Z,8.10
2022-10-07T04:09:49.906Z,13.13
2022-10-07T04:12:17.220Z,9.57
2022-10-07T04:14:44.906Z,8.18
2022-10-07T04:17:11.989Z,9.98
2022-10-07T04:19:39.053Z,8.88
2022-10-07T04:22:08.873Z,6.30
2022-10-07T04:24:36.149Z,8.25
2022-10-07T04:27:06.642Z,9.88
2022-10-07T04:29:38.895Z,9.85
2022-10-07T04:32:06.394Z,9.52
2022-10-07T04:34:33.461Z,9.82
2022-10-07T04:37:01.043Z,8.88
2022-10-07T04:39:48.965Z,7.88
2022-10-07T04:42:34.307Z,8.65
2022-10-07T04:45:00.936Z,11.88
2022-10-07T04:47:27.530Z,9.70
2022-10-07T04:49:55.037Z,8.63
2022-10-07T04:52:21.636Z,10.13
2022-10-07T04:54:48.651Z,11.23
2022-10-07T04:57:15.724Z,9.05
2022-10-07T04:59:43.255Z,11.77
2022-10-07T05:02:10.687Z,13.07
2022-10-07T05:04:37.789Z,9.93
2022-10-07T05:07:05.334Z,9.73
2022-10-07T05:09:32.371Z,11.63
2022-10-07T05:11:59.344Z,11.43
2022-10-07T05:14:26.420Z,13.90
2022-10-07T05:16:53.909Z,14.63
2022-10-07T05:19:20.993Z,16.88
2022-10-07T05:21:48.004Z,20.73
2022-10-07T05:24:14.985Z,22.80
2022-10-07T05:26:42.048Z,20.67
2022-10-07T05:29:09.401Z,27.10
2022-10-07T05:31:36.402Z,19.90
2022-10-07T05:34:03.495Z,24.25
2022-10-07T05:36:30.477Z,22.10
2022-10-07T05:38:58.078Z,29.95
2022-10-07T05:41:25.335Z,25.65
2022-10-07T05:43:52.312Z,25.88
2022-10-07T05:46:23.698Z,20.52
2022-10-07T05:48:51.806Z,30.13
2022-10-07T05:51:19.419Z,27.60
2022-10-07T05:53:46.774Z,24.92
2022-10-07T05:56:18.164Z,23.50
2022-10-07T05:58:46.008Z,24.60
2022-10-07T06:01:14.982Z,21.98
2022-10-07T06:03:42.659Z,21.00
2022-10-07T06:06:09.693Z,19.50
2022-10-07T06:08:37.121Z,20.60
2022-10-07T06:11:23.510Z,19.65
2022-10-07T06:13:51.294Z,20.35
2022-10-07T06:16:18.760Z,21.70
2022-10-07T06:18:47.614Z,20.70
2022-10-07T06:21:14.643Z,18.38
2022-10-07T06:23:41.663Z,20.48
2022-10-07T06:26:10.321Z,17.63
2022-10-07T06:28:38.517Z,18.17
2022-10-07T06:31:06.557Z,18.98
2022-10-07T06:33:34.041Z,19.95
2022-10-07T06:36:07.997Z,17.73
2022-10-07T06:41:02.965Z,17.25
2022-10-07T06:43:30.842Z,18.95
2022-10-07T06:45:58.778Z,17.25
2022-10-07T06:48:26.364Z,16.48
2022-10-07T06:50:54.207Z,19.48
2022-10-07T06:53:21.556Z,16.05
2022-10-07T06:55:54.525Z,20.10
2022-10-07T06:58:22.555Z,16.75
2022-10-07T07:00:50.213Z,15.38
2022-10-07T07:03:18.026Z,16.25
2022-10-07T07:05:46.406Z,15.93
2022-10-07T07:08:17.317Z,17.02
2022-10-07T07:10:45.375Z,16.45
2022-10-07T07:13:12.929Z,15.70
2022-10-07T07:15:40.570Z,15.30
2022-10-07T07:18:08.570Z,17.35
2022-10-07T07:20:37.282Z,15.27
2022-10-07T07:23:05.023Z,15.13
2022-10-07T07:25:32.679Z,15.65
2022-10-07T07:28:03.256Z,15.18
2022-10-07T07:30:30.580Z,14.45
2022-10-07T07:32:58.130Z,16.40
2022-10-07T07:35:26.688Z,14.52
2022-10-07T07:37:54.403Z,15.55
2022-10-07T07:40:22.011Z,17.30
2022-10-07T07:42:49.401Z,16.77
2022-10-07T07:45:17.993Z,20.08
2022-10-07T07:47:49.248Z,16.65
2022-10-07T07:50:18.357Z,18.10
2022-10-07T07:52:45.463Z,17.63
2022-10-07T07:55:12.524Z,22.60
2022-10-07T07:57:39.662Z,19.65
2022-10-07T08:00:07.437Z,21.65
2022-10-07T08:02:34.733Z,19.77
2022-10-07T08:05:01.792Z,18.90
2022-10-07T08:07:28.895Z,19.27
2022-10-07T08:09:55.917Z,18.77
2022-10-07T08:12:23.684Z,17.83
2022-10-07T08:14:50.675Z,18.83
2022-10-07T08:17:17.705Z,21.50
2022-10-07T08:19:44.728Z,18.00
2022-10-07T08:22:17.399Z,19.20
2022-10-07T08:24:44.490Z,21.38
2022-10-07T08:27:11.533Z,18.80
2022-10-07T08:29:38.585Z,19.85
2022-10-07T08:32:06.454Z,22.13
2022-10-07T08:34:33.511Z,21.08
2022-10-07T08:37:00.497Z,19.88
2022-10-07T08:39:29.462Z,22.17
2022-10-07T08:42:03.319Z,28.48
2022-10-07T08:44:35.925Z,21.83
2022-10-07T08:47:02.898Z,18.98
2022-10-07T08:49:51.019Z,21.95
2022-10-07T08:52:25.156Z,22.85
2022-10-07T08:54:52.173Z,23.35
2022-10-07T08:57:24.534Z,20.38
2022-10-07T08:59:53.562Z,23.83
2022-10-07T09:02:33.272Z,20.27
2022-10-07T09:05:21.820Z,21.08
2022-10-07T09:07:50.669Z,23.52
2022-10-07T09:10:17.635Z,23.85
2022-10-07T09:12:47.725Z,21.45
2022-10-07T09:15:24.087Z,21.20
2022-10-07T09:17:55.131Z,23.25
2022-10-07T09:20:26.276Z,22.83
2022-10-07T09:22:57.316Z,22.83
2022-10-07T09:25:25.960Z,20.88
2022-10-07T09:27:54.423Z,21.45
2022-10-07T09:30:27.805Z,21.85
2022-10-07T09:32:55.538Z,23.10
2022-10-07T09:35:26.937Z,20.77
2022-10-07T09:38:10.015Z,25.73
2022-10-07T09:41:03.552Z,20.17
2022-10-07T09:43:32.425Z,20.90
2022-10-07T09:46:00.617Z,24.38
2022-10-07T09:48:34.313Z,18.63
2022-10-07T09:51:15.365Z,20.08
2022-10-07T09:54:05.484Z,23.10
2022-10-07T09:56:39.941Z,23.45
2022-10-07T09:59:23.812Z,23.02
2022-10-07T10:01:55.477Z,21.70
2022-10-07T10:04:29.032Z,22.15
2022-10-07T10:06:58.814Z,20.73
2022-10-07T10:09:26.500Z,21.70
2022-10-07T10:12:06.717Z,20.30
2022-10-07T10:14:48.827Z,22.55
2022-10-07T10:17:23.672Z,20.67
2022-10-07T10:19:50.745Z,21.92
2022-10-07T10:22:25.926Z,18.33
2022-10-07T10:25:12.314Z,18.85
2022-10-07T10:27:45.393Z,20.25
2022-10-07T10:30:17.310Z,21.17
2022-10-07T10:33:04.429Z,20.83
2022-10-07T10:35:42.080Z,20.23
2022-10-07T10:38:12.376Z,20.15
2022-10-07T10:40:56.493Z,18.73
2022-10-07T10:43:26.717Z,21.08
2022-10-07T10:46:01.337Z,23.65
2022-10-07T10:48:31.347Z,21.40
2022-10-07T10:51:02.092Z,19.42
2022-10-07T10:53:48.100Z,19.73
2022-10-07T10:56:34.200Z,21.38
2022-10-07T10:59:09.322Z,22.38
2022-10-07T11:01:40.788Z,17.70
2022-10-07T11:04:15.773Z,18.23
2022-10-07T11:06:44.091Z,19.27
2022-10-07T11:09:16.450Z,19.25
2022-10-07T11:11:44.808Z,19.13
2022-10-07T11:14:17.624Z,21.65
2022-10-07T11:16:47.137Z,21.00
2022-10-07T11:19:20.392Z,20.05
2022-10-07T11:21:49.265Z,19.95
2022-10-07T11:24:31.061Z,22.10
2022-10-07T11:27:00.203Z,20.30
2022-10-07T11:29:49.327Z,20.88
2022-10-07T11:32:38.645Z,20.42
2022-10-07T11:35:23.234Z,20.02
2022-10-07T11:37:57.916Z,20.25
2022-10-07T11:40:28.995Z,19.05
2022-10-07T11:42:57.668Z,18.17
2022-10-07T11:45:27.325Z,19.75
2022-10-07T11:47:59.786Z,19.35
2022-10-07T11:50:29.187Z,18.80
2022-10-07T11:53:01.423Z,21.23
2022-10-07T11:55:36.261Z,23.75
2022-10-07T11:58:04.170Z,19.40
2022-10-07T12:00:40.340Z,19.58
2022-10-07T12:03:13.186Z,18.45
2022-10-07T12:05:40.240Z,22.02
2022-10-07T12:08:29.216Z,20.67
2022-10-07T12:10:57.219Z,20.55
2022-10-07T12:13:24.170Z,20.25
2022-10-07T12:15:51.782Z,18.88
2022-10-07T12:18:27.732Z,19.50
2022-10-07T12:20:59.531Z,20.33
2022-10-07T12:23:26.553Z,18.25
2022-10-07T12:26:00.733Z,19.20
2022-10-07T12:28:40.766Z,20.75
2022-10-07T12:31:28.644Z,17.67
2022-10-07T12:34:09.180Z,21.67
2022-10-07T12:36:37.748Z,21.25
2022-10-07T12:39:04.732Z,19.20
2022-10-07T12:41:36.420Z,19.25
2022-10-07T12:44:12.635Z,17.88
2022-10-07T12:46:39.635Z,17.33
2022-10-07T12:49:15.057Z,19.90
2022-10-07T12:51:42.194Z,16.92
2022-10-07T12:54:20.508Z,17.90
2022-10-07T12:56:49.002Z,17.88
2022-10-07T12:59:50.284Z,18.25
2022-10-07T13:02:31.022Z,19.38
2022-10-07T13:05:15.437Z,17.85
2022-10-07T13:08:08.271Z,18.52
2022-10-07T13:10:54.153Z,19.88
2022-10-07T13:13:34.325Z,18.15
2022-10-07T13:16:09.617Z,18.58
2022-10-07T13:18:42.451Z,17.20
2022-10-07T13:21:12.405Z,17.67
2022-10-07T13:23:39.463Z,18.00
2022-10-07T13:26:07.653Z,18.50
2022-10-07T13:28:37.855Z,18.23
2022-10-07T13:31:19.015Z,17.02
2022-10-07T13:33:46.308Z,15.07
2022-10-07T13:36:13.267Z,18.58
2022-10-07T13:38:39.926Z,14.07
2022-10-07T13:41:15.692Z,16.65
2022-10-07T13:43:44.454Z,13.27
2022-10-07T13:46:12.703Z,15.20
2022-10-07T13:48:45.804Z,15.50
2022-10-07T13:51:34.013Z,18.20
2022-10-07T13:54:03.758Z,20.00
2022-10-07T13:56:35.008Z,18.08
2022-10-07T13:59:03.358Z,16.98
2022-10-07T14:01:32.209Z,17.58
2022-10-07T14:04:27.625Z,18.05
2022-10-07T14:07:14.511Z,16.88
2022-10-07T14:10:00.584Z,18.73
2022-10-07T14:12:44.673Z,22.40
2022-10-07T14:15:22.728Z,18.63
2022-10-07T14:18:04.652Z,20.77
2022-10-07T14:20:34.693Z,17.42
2022-10-07T14:23:28.211Z,19.30
2022-10-07T14:25:57.442Z,17.80
2022-10-07T14:28:24.067Z,15.15
2022-10-07T14:31:27.750Z,14.43
2022-10-07T14:34:15.705Z,19.27
2022-10-07T14:37:01.369Z,15.07
2022-10-07T14:39:42.299Z,15.55
2022-10-07T14:42:19.609Z,17.60
2022-10-07T14:44:46.630Z,18.50
2022-10-07T14:47:13.390Z,17.33
2022-10-07T14:49:43.496Z,17.17
2022-10-07T14:52:18.987Z,15.70
2022-10-07T14:54:46.286Z,16.70
2022-10-07T14:57:13.283Z,17.13
2022-10-07T14:59:40.069Z,14.23
2022-10-07T15:02:07.078Z,16.73
2022-10-07T15:04:33.760Z,17.17
2022-10-07T15:07:00.474Z,17.65
2022-10-07T15:09:27.308Z,16.55
2022-10-07T15:11:54.073Z,15.73
2022-10-07T15:14:20.979Z,17.92
2022-10-07T15:16:50.310Z,15.05
2022-10-07T15:19:17.079Z,15.77
2022-10-07T15:21:44.099Z,18.80
2022-10-07T15:24:10.692Z,14.82
2022-10-07T15:26:37.297Z,14.73
2022-10-07T15:29:04.051Z,17.20
2022-10-07T15:31:30.746Z,14.18
2022-10-07T15:33:57.802Z,18.85
2022-10-07T15:36:26.881Z,19.75
2022-10-07T15:38:54.275Z,17.35
2022-10-07T15:41:36.982Z,17.15
2022-10-07T15:44:07.132Z,19.02
2022-10-07T15:46:34.932Z,16.40
2022-10-07T15:49:03.411Z,22.20
2022-10-07T15:51:31.031Z,16.83
2022-10-07T15:53:58.249Z,20.10
2022-10-07T15:56:25.448Z,17.13
2022-10-07T15:58:53.073Z,18.77
2022-10-07T16:01:20.676Z,21.10
2022-10-07T16:03:48.979Z,19.42
2022-10-07T16:06:15.870Z,25.20
2022-10-07T16:08:42.891Z,22.70
2022-10-07T16:11:11.497Z,18.38
2022-10-07T16:13:40.305Z,19.77
2022-10-07T16:16:12.678Z,21.77
2022-10-07T16:18:41.634Z,21.38
2022-10-07T16:21:09.397Z,18.42
2022-10-07T16:23:37.786Z,19.10
2022-10-07T16:26:13.222Z,23.00
2022-10-07T16:29:00.594Z,23.98
2022-10-07T16:31:29.889Z,21.80
2022-10-07T16:33:56.945Z,22.70
2022-10-07T16:36:25.322Z,23.38
2022-10-07T16:38:53.401Z,27.38
2022-10-07T16:41:21.181Z,23.40
2022-10-07T16:43:47.851Z,22.10
2022-10-07T16:46:18.603Z,23.70
2022-10-07T16:48:47.439Z,23.80
2022-10-07T16:51:20.352Z,25.63
2022-10-07T16:53:48.931Z,16.42
2022-10-07T16:56:20.008Z,21.75
2022-10-07T16:58:47.026Z,21.50
2022-10-07T17:01:16.232Z,23.73
2022-10-07T17:03:46.725Z,24.25
2022-10-07T17:06:15.777Z,29.23
2022-10-07T17:08:47.443Z,23.15
2022-10-07T17:11:30.074Z,21.10
2022-10-07T17:14:23.621Z,21.88
2022-10-07T17:16:52.571Z,15.90
2022-10-07T17:19:21.974Z,23.75
2022-10-07T17:21:49.791Z,23.35
2022-10-07T17:24:18.177Z,21.70
2022-10-07T17:26:45.511Z,22.38
2022-10-07T17:29:14.733Z,21.70
2022-10-07T17:31:43.269Z,26.13
2022-10-07T17:34:13.234Z,21.20
2022-10-07T17:36:40.817Z,22.52
2022-10-07T17:39:07.602Z,23.73
2022-10-07T17:41:36.825Z,22.23
2022-10-07T17:44:08.140Z,26.73
2022-10-07T17:46:36.398Z,25.60
2022-10-07T17:49:03.637Z,26.63
2022-10-07T17:51:32.099Z,33.60
2022-10-07T17:54:00.553Z,28.20
2022-10-07T17:56:29.338Z,26.13
2022-10-07T17:58:57.104Z,24.15
2022-10-07T18:01:27.328Z,24.73
2022-10-07T18:04:02.003Z,27.52
2022-10-07T18:06:31.869Z,23.83
2022-10-07T18:08:59.048Z,28.33
2022-10-07T18:11:46.403Z,22.40
2022-10-07T18:14:31.655Z,22.38
2022-10-07T18:16:58.238Z,26.52
2022-10-07T18:19:26.467Z,23.58
2022-10-07T18:21:56.147Z,24.35
2022-10-07T18:24:29.286Z,23.38
2022-10-07T18:26:59.636Z,24.27
2022-10-07T18:29:32.076Z,23.20
2022-10-07T18:31:59.602Z,22.63
2022-10-07T18:34:26.252Z,26.83
2022-10-07T18:36:56.600Z,24.13
2022-10-07T18:39:29.329Z,23.33
2022-10-07T18:41:56.119Z,22.08
2022-10-07T18:44:22.763Z,22.67
2022-10-07T18:46:49.453Z,24.70
2022-10-07T18:49:16.085Z,22.63
2022-10-07T18:51:43.086Z,22.10
2022-10-07T18:54:10.561Z,25.42
2022-10-07T18:56:41.131Z,27.05
2022-10-07T18:59:09.481Z,25.27
2022-10-07T19:01:37.284Z,24.20
2022-10-07T19:04:05.232Z,25.23
2022-10-07T19:06:34.529Z,23.48
2022-10-07T19:09:04.281Z,21.42
2022-10-07T19:11:30.907Z,26.23
2022-10-07T19:13:59.109Z,21.67
2022-10-07T19:16:37.708Z,22.10
2022-10-07T19:19:10.132Z,21.27
2022-10-07T19:21:39.342Z,26.45
2022-10-07T19:24:06.934Z,28.90
2022-10-07T19:26:43.752Z,28.95
2022-10-07T19:29:11.920Z,21.38
2022-10-07T19:31:41.477Z,25.73
2022-10-07T19:34:13.865Z,26.08
2022-10-07T19:36:42.309Z,24.67
2022-10-07T19:39:10.351Z,27.95
2022-10-07T19:41:37.507Z,24.42
2022-10-07T19:44:04.804Z,24.70
2022-10-07T19:46:33.298Z,25.05
2022-10-07T19:49:01.746Z,27.80
2022-10-07T19:51:30.341Z,26.85
2022-10-07T19:53:58.478Z,26.35
2022-10-07T19:56:28.643Z,25.27
2022-10-07T19:58:57.843Z,26.15
2022-10-07T20:01:31.804Z,26.10
2022-10-07T20:04:04.418Z,29.70
2022-10-07T20:06:31.205Z,26.20
2022-10-07T20:08:58.653Z,26.02
2022-10-07T20:11:27.658Z,23.48
2022-10-07T20:13:54.366Z,27.60
2022-10-07T20:16:24.170Z,28.88
2022-10-07T20:18:57.125Z,25.60
2022-10-07T20:21:24.077Z,29.17
2022-10-07T20:23:53.200Z,27.95
2022-10-07T20:26:25.767Z,26.77
2022-10-07T20:28:54.901Z,24.10
2022-10-07T20:31:24.275Z,31.15
2022-10-07T20:33:53.181Z,24.20
2022-10-07T20:36:23.488Z,27.15
2022-10-07T20:39:24.895Z,25.17
2022-10-07T20:42:11.436Z,26.58
2022-10-07T20:44:38.798Z,24.17
2022-10-07T20:47:07.620Z,27.85
2022-10-07T20:49:37.093Z,24.88
2022-10-07T20:52:06.913Z,29.10
2022-10-07T20:54:33.859Z,32.00
2022-10-07T20:57:00.920Z,28.30
2022-10-07T20:59:30.067Z,26.48
2022-10-07T21:01:57.809Z,25.77
2022-10-07T21:04:26.910Z,28.40
2022-10-07T21:06:54.397Z,31.77
2022-10-07T21:09:20.997Z,29.42
2022-10-07T21:11:48.206Z,30.85
2022-10-07T21:14:16.993Z,25.13
2022-10-07T21:16:44.746Z,27.27
2022-10-07T21:19:11.516Z,26.55
2022-10-07T21:21:39.088Z,26.95
2022-10-07T21:24:07.079Z,27.23
2022-10-07T21:26:35.224Z,29.27
2022-10-07T21:29:03.585Z,27.33
2022-10-07T21:31:31.335Z,27.48
2022-10-07T21:34:01.471Z,28.35
2022-10-07T21:36:28.339Z,26.23
2022-10-07T21:38:58.742Z,29.67
2022-10-07T21:41:38.509Z,28.05
2022-10-07T21:44:07.191Z,27.52
2022-10-07T21:46:36.548Z,27.85
2022-10-07T21:49:03.740Z,27.67
2022-10-07T21:51:32.187Z,31.63
2022-10-07T21:53:58.997Z,28.40
2022-10-07T21:56:28.224Z,27.40
2022-10-07T21:58:55.172Z,29.08
2022-10-07T22:01:23.878Z,31.80
2022-10-07T22:04:15.791Z,30.02
2022-10-07T22:07:01.290Z,26.67
2022-10-07T22:09:27.916Z,27.65
2022-10-07T22:11:54.574Z,26.15
2022-10-07T22:14:21.246Z,29.02
2022-10-07T22:16:48.392Z,26.17
2022-10-07T22:19:16.531Z,24.80
2022-10-07T22:21:43.553Z,26.52
2022-10-07T22:24:10.262Z,27.73
2022-10-07T22:26:40.411Z,27.38
2022-10-07T22:29:09.510Z,26.90
2022-10-07T22:31:37.124Z,25.08
2022-10-07T22:34:04.342Z,27.48
2022-10-07T22:36:31.008Z,27.48
2022-10-07T22:38:59.211Z,24.85
2022-10-07T22:41:27.054Z,24.95
2022-10-07T22:43:54.009Z,24.15
2022-10-07T22:46:26.092Z,22.98
2022-10-07T22:48:57.761Z,21.15
2022-10-07T22:51:28.207Z,25.90
2022-10-07T22:53:56.312Z,23.48
2022-10-07T22:56:24.585Z,22.17
2022-10-07T22:58:54.305Z,22.52
2022-10-07T23:01:21.657Z,23.13
2022-10-07T23:03:48.478Z,22.75
2022-10-07T23:06:18.087Z,23.73
2022-10-07T23:08:45.930Z,21.67
2022-10-07T23:11:30.970Z,23.90
2022-10-07T23:13:57.729Z,20.40
2022-10-07T23:16:29.385Z,24.45
2022-10-07T23:18:56.765Z,23.02
2022-10-07T23:21:25.526Z,24.60
2022-10-07T23:24:01.739Z,25.10
2022-10-07T23:26:31.656Z,23.00
2022-10-07T23:28:59.950Z,26.75
2022-10-07T23:31:28.320Z,23.20
2022-10-07T23:33:56.468Z,27.20
2022-10-07T23:36:23.738Z,26.83
2022-10-07T23:38:50.986Z,24.38
2022-10-07T23:41:20.794Z,24.50
2022-10-07T23:43:51.837Z,23.42
2022-10-07T23:46:19.782Z,26.40
2022-10-07T23:48:46.981Z,25.17
2022-10-07T23:51:16.658Z,30.13
2022-10-07T23:53:43.585Z,23.55
2022-10-07T23:56:10.407Z,21.60
2022-10-07T23:58:37.606Z,24.52
